Terminal Aerodrome Forecast
Issued by NWS

Home | Current Version | Previous Version | Text Only | Print | Product List | Glossary Off
Versions: 1 2 3 4 5 6 7 8 9 10 11 12 13 14

000
FTUS43 KGRB 172300
TAFATW
TAF
KATW 172332Z 1800/1824 15010KT P6SM FEW050
     FM180100 VRB04KT P6SM SKC
     FM181100 04010G16KT P6SM SKC
     FM181400 04014G20KT P6SM SCT200=

USA.gov is the U.S. government's official web portal to all federal, state and local government web resources and services.